Acmar, AL

8:15 AM CDT on November 01, 2014 (GMT -0500)
Moore Field | Change Station
CLOSE
Current Station
Personal Weather Station
Location: Moody, AL
Elevation: 728 ft
Nearby Weather Stations
Active Advisory: Freeze Warning

Elev 728 ft 33.61 °N, 86.48 °W | Updated 4 minutes ago

Partly Cloudy
Partly Cloudy
36.9 °F
Feels Like 29 °F
N
12.0
Wind Variable Wind from NNW
Gusts 18.0 mph

Today
High -- | Low -- °F
--% Chance of Precip.
Yesterday
High -- | Low -- °F
Precip. -- in
7:04 AM 5:53 PM
Waxing Gibbous, 66% visible
Pressure 30.23 in
Visibility 10.0 miles
Clouds Mostly Cloudy 3200 ft
Windchill 29 °F
Dew Point 30 °F
Humidity 75%
Rainfall 0.00 in
Snow Depth Not available.
UV 0 out of 12
Pollen 1.20 out of 12
Air Quality Not available.
Flu Activity Not available.
METAR KBHM 011253Z 33012KT 10SM BKN032 02/M03 A3022 RMK AO2 SLP236 T00221033

More Conditions Fewer Conditions

Pressure 30.23 in
Visibility 10.0 miles
Clouds Mostly Cloudy 3200 ft
Windchill 29 °F
Dew Point 30 °F
Humidity 75%
Rainfall 0.00 in
Snow Depth Not available.
UV 0 out of 12
Pollen 1.20 out of 12
Air Quality Not available.
Flu Activity Not available.
METAR KBHM 011253Z 33012KT 10SM BKN032 02/M03 A3022 RMK AO2 SLP236 T00221033

More Conditions Fewer Conditions

10-Day Weather Forecast

Almanac

Astronomy

Nov. 01, 2014 Rise Set
Actual Time
Civil Twilight
Nautical Twilight
Astronomical Twilight
Moon
Length of Visible Light
Length of Day
Tomorrow will be .
, % of the Moon is Illuminated

Today's Extremes

State Highs State Lows

Community

WunderPhotos

Upload Photos

1,766,921 photos uploaded!

WunderBlogs® & News

Nearby

Air Quality

  Air Quality AQ Index Pollutant
Not available.

Snow Depth

Station Depth Elevation

Earthquake Activity

City Distance Mag. Time & Date
Minimum magnitude displayed is 2.5.

Coastal Water Temperatures

Place Temperature

Nearby Weather Stations